F/V L'atout II — FGG5090 — position and weather

sailwx.info

Track history (hours):
 
Tides and Currents Weather Stations Pressure Air Temp Water Temp Dewpoint Dewpoint Depression Visibility Wind Speed Wind Dir Waves Ship Positions

F/V L'atout II

Last reported at 2017-Nov-18 12:07 UTC. Time now 2017-Nov-18 23:37 UTC.
Position N 47°44' W 003°22'.

Length 10 m.

Type: Fishing. MMSI: 227021840.

Date/timePositionNaut miles runAvg speedWind from/ knotsBaromVisibWave heightAir tempDewpointWater temp
2017-Nov-18 12:07N 47°44' W 003°22'0 0.3
2017-Nov-18 11:59N 47°44' W 003°22'3 5.5
2017-Nov-18 11:30N 47°41' W 003°22'4 8.2
2017-Nov-18 11:00N 47°37' W 003°23'4 8.1
2017-Nov-18 10:30N 47°33' W 003°22'2 3.8
2017-Nov-18 10:00N 47°31' W 003°22'0 0.6
2017-Nov-18 09:30N 47°31' W 003°22'1 1.1
2017-Nov-18 09:00N 47°30' W 003°22'0 0.8
2017-Nov-18 08:30N 47°31' W 003°22'4 6.9
2017-Nov-18 07:55N 47°34' W 003°26'0 1.0
2017-Nov-18 07:30N 47°34' W 003°26'1 1.1
2017-Nov-18 07:00N 47°34' W 003°26'1 1.4
2017-Nov-18 06:30N 47°34' W 003°25'1 2.1
2017-Nov-18 06:00N 47°33' W 003°25'2 3.0
2017-Nov-18 05:30N 47°32' W 003°23'2 3.2
2017-Nov-18 05:00N 47°32' W 003°20'1 2.4
2017-Nov-18 04:30N 47°32' W 003°22'1 1.1
2017-Nov-18 04:00N 47°31' W 003°22'2 3.1
2017-Nov-18 03:30N 47°33' W 003°23'4 7.8
2017-Nov-18 03:00N 47°37' W 003°23'4 7.8
2017-Nov-18 02:30N 47°41' W 003°22'3 6.1
2017-Nov-18 02:00N 47°44' W 003°22'0 0.0
2017-Nov-17 12:46N 47°44' W 003°22'0 0.2
2017-Nov-17 12:28N 47°44' W 003°22'3 7.2
2017-Nov-17 12:00N 47°40' W 003°22'4 8.1
2017-Nov-17 11:30N 47°36' W 003°22'4 8.1
2017-Nov-17 11:00N 47°32' W 003°21'1 1.1
2017-Nov-17 10:30N 47°32' W 003°21'1 2.0
2017-Nov-17 10:00N 47°31' W 003°22'0 0.3
2017-Nov-17 09:30N 47°31' W 003°22'1 1.2
2017-Nov-17 09:00N 47°31' W 003°23'1 1.6
2017-Nov-17 08:30N 47°32' W 003°24'2 3.6
2017-Nov-17 08:00N 47°34' W 003°24'1 1.4
2017-Nov-17 07:30N 47°34' W 003°25'1 2.6
2017-Nov-17 06:59N 47°35' W 003°26'1 1.3
2017-Nov-17 06:30N 47°34' W 003°26'1 1.1
2017-Nov-17 06:00N 47°34' W 003°25'0 0.8
2017-Nov-17 05:30N 47°34' W 003°25'1 1.7
2017-Nov-17 05:00N 47°33' W 003°25'0 0.4
2017-Nov-17 04:30N 47°33' W 003°25'1 1.9
2017-Nov-17 04:00N 47°32' W 003°24'2 3.7
2017-Nov-17 03:30N 47°32' W 003°21'4 7.7
2017-Nov-17 03:00N 47°36' W 003°22'4 7.7
2017-Nov-17 02:30N 47°40' W 003°22'3 6.9
2017-Nov-17 02:00N 47°44' W 003°22'0 0.0
2017-Nov-16 12:20N 47°44' W 003°22'0 0.6
2017-Nov-16 12:00N 47°44' W 003°22'4 8.3
2017-Nov-16 11:30N 47°39' W 003°22'4 8.2
2017-Nov-16 10:59N 47°35' W 003°24'2 4.8
2017-Nov-16 10:29N 47°33' W 003°25'0 0.3
2017-Nov-16 10:00N 47°33' W 003°25'1 2.4
2017-Nov-16 09:30N 47°33' W 003°27'1 1.4
2017-Nov-16 08:59N 47°33' W 003°26'1 3.0
2017-Nov-16 08:30N 47°32' W 003°24'2 4.8
2017-Nov-16 08:00N 47°34' W 003°26'1 1.3
2017-Nov-16 07:29N 47°34' W 003°26'1 2.4
2017-Nov-16 06:58N 47°35' W 003°26'0 0.2
2017-Nov-16 06:30N 47°35' W 003°26'0 0.8
2017-Nov-16 06:00N 47°35' W 003°26'1 1.0
2017-Nov-16 05:30N 47°34' W 003°25'0 0.9
2017-Nov-16 05:00N 47°34' W 003°25'0 0.6
2017-Nov-16 04:28N 47°34' W 003°25'1 1.1
2017-Nov-16 04:00N 47°33' W 003°25'1 1.0
2017-Nov-16 03:30N 47°33' W 003°26'3 6.8
2017-Nov-16 03:00N 47°36' W 003°23'4 7.6
2017-Nov-16 02:30N 47°40' W 003°23'3 6.9
2017-Nov-16 02:00N 47°43' W 003°22'0 0.0
2017-Nov-15 15:56N 47°44' W 003°22'0 0.0
2017-Nov-15 15:29N 47°44' W 003°22'0 0.0
2017-Nov-15 15:00N 47°44' W 003°22'0 0.0
2017-Nov-15 14:30N 47°44' W 003°22'0 0.0
2017-Nov-15 13:25N 47°44' W 003°22'0 0.1
2017-Nov-15 13:00N 47°44' W 003°22'4 8.1
2017-Nov-15 12:30N 47°40' W 003°22'4 8.1
2017-Nov-15 12:00N 47°36' W 003°23'2 4.2
2017-Nov-15 11:30N 47°34' W 003°25'0 0.2
2017-Nov-15 11:00N 47°34' W 003°25'0 0.4
2017-Nov-15 10:30N 47°34' W 003°25'0 0.6
2017-Nov-15 10:00N 47°34' W 003°25'1 2.7
2017-Nov-15 09:30N 47°35' W 003°23'1 1.4
2017-Nov-15 09:00N 47°35' W 003°24'1 2.1
2017-Nov-15 08:29N 47°34' W 003°26'0 0.9
2017-Nov-15 08:00N 47°34' W 003°26'1 1.4
2017-Nov-15 07:30N 47°34' W 003°27'1 1.0
2017-Nov-15 07:00N 47°34' W 003°27'0 0.9
2017-Nov-15 06:30N 47°34' W 003°27'1 1.5
2017-Nov-15 06:00N 47°35' W 003°26'0 0.4
2017-Nov-15 05:30N 47°35' W 003°26'0 0.8
2017-Nov-15 05:00N 47°35' W 003°26'1 1.5
2017-Nov-15 04:30N 47°34' W 003°25'1 2.0
2017-Nov-15 04:00N 47°34' W 003°24'1 1.1
2017-Nov-15 03:30N 47°34' W 003°25'2 4.8
2017-Nov-15 03:00N 47°36' W 003°23'4 7.7
2017-Nov-15 02:30N 47°40' W 003°23'4 7.1
2017-Nov-15 02:00N 47°44' W 003°22'0 0.0
2017-Nov-14 12:43N 47°44' W 003°22'0 0.2
2017-Nov-14 12:29N 47°44' W 003°22'1 1.1
2017-Nov-14 12:00N 47°43' W 003°22'4 8.1
2017-Nov-14 11:30N 47°39' W 003°23'4 7.9
2017-Nov-14 10:59N 47°35' W 003°24'1 2.6
2017-Nov-14 10:30N 47°34' W 003°25'1 1.0
2017-Nov-14 10:00N 47°34' W 003°24'0 0.8
2017-Nov-14 09:30N 47°34' W 003°24'1 2.7
2017-Nov-14 08:58N 47°35' W 003°25'1 1.8
2017-Nov-14 08:30N 47°34' W 003°26'1 1.3
2017-Nov-14 08:00N 47°34' W 003°26'1 1.5
2017-Nov-14 07:29N 47°34' W 003°25'0 0.4
2017-Nov-14 07:00N 47°34' W 003°25'1 1.3
2017-Nov-14 06:30N 47°33' W 003°26'0 0.7
2017-Nov-14 06:00N 47°33' W 003°26'1 0.8
2017-Nov-14 05:11N 47°34' W 003°27'0 1.3
2017-Nov-14 05:00N 47°34' W 003°27'1 2.8
2017-Nov-14 04:30N 47°35' W 003°26'1 1.1
2017-Nov-14 04:00N 47°35' W 003°26'1 1.6
2017-Nov-14 03:30N 47°34' W 003°25'2 3.8
2017-Nov-14 03:00N 47°36' W 003°23'4 8.2
2017-Nov-14 02:30N 47°40' W 003°23'4 7.6
2017-Nov-14 02:00N 47°43' W 003°22'0 0.0
2017-Nov-13 02:00N 47°44' W 003°22'  
2017-Nov-10 13:32N 47°44' W 003°22'0 0.0
2017-Nov-10 13:29N 47°44' W 003°22'0 0.0
2017-Nov-10 12:59N 47°44' W 003°22'0 0.0
2017-Nov-10 12:29N 47°44' W 003°22'1 1.8
2017-Nov-10 12:00N 47°43' W 003°22'3 6.8
2017-Nov-10 11:30N 47°40' W 003°23'3 6.8
2017-Nov-10 11:00N 47°36' W 003°25'3 5.3
2017-Nov-10 10:30N 47°34' W 003°24'1 1.4
2017-Nov-10 10:00N 47°33' W 003°25'0 0.6
2017-Nov-10 09:30N 47°33' W 003°25'1 2.7
2017-Nov-10 09:00N 47°34' W 003°27'0 0.9
2017-Nov-10 08:30N 47°34' W 003°27'1 1.2
2017-Nov-10 08:00N 47°33' W 003°26'1 1.2
2017-Nov-10 07:30N 47°33' W 003°25'0 0.9
2017-Nov-10 07:00N 47°33' W 003°25'1 2.8
2017-Nov-10 06:30N 47°34' W 003°26'0 0.7
2017-Nov-10 06:00N 47°34' W 003°25'1 1.4
2017-Nov-10 05:30N 47°35' W 003°26'0 0.7
2017-Nov-10 05:00N 47°35' W 003°26'0 0.8
2017-Nov-10 04:30N 47°35' W 003°25'2 3.4
2017-Nov-10 04:00N 47°33' W 003°26'1 2.1
2017-Nov-10 03:30N 47°34' W 003°26'3 6.3
2017-Nov-10 03:00N 47°37' W 003°23'4 7.2
2017-Nov-10 02:30N 47°40' W 003°22'3 6.7
2017-Nov-10 02:00N 47°44' W 003°22'0 0.0
2017-Nov-09 13:45N 47°44' W 003°22'0 0.2
2017-Nov-09 13:30N 47°44' W 003°22'2 4.6
2017-Nov-09 13:00N 47°42' W 003°22'4 7.5
2017-Nov-09 12:30N 47°38' W 003°23'4 7.3
2017-Nov-09 12:00N 47°34' W 003°24'3 5.2
2017-Nov-09 11:30N 47°35' W 003°28'0 1.0
2017-Nov-09 11:00N 47°35' W 003°27'0 0.9
2017-Nov-09 10:30N 47°34' W 003°27'1 1.3
2017-Nov-09 10:00N 47°34' W 003°26'2 3.1
2017-Nov-09 09:30N 47°34' W 003°24'1 1.2
2017-Nov-09 09:00N 47°34' W 003°25'2 3.1
2017-Nov-09 08:30N 47°33' W 003°27'1 1.0
2017-Nov-09 08:00N 47°33' W 003°26'1 1.2
2017-Nov-09 07:30N 47°33' W 003°26'2 4.1
2017-Nov-09 07:00N 47°35' W 003°26'1 1.9
2017-Nov-09 06:30N 47°34' W 003°26'0 0.9
2017-Nov-09 06:00N 47°34' W 003°25'1 3.0
2017-Nov-09 05:30N 47°35' W 003°26'0 0.9
2017-Nov-09 05:00N 47°35' W 003°26'1 2.2
2017-Nov-09 04:30N 47°35' W 003°27'2 4.1
2017-Nov-09 04:00N 47°34' W 003°25'1 1.9
2017-Nov-09 03:30N 47°33' W 003°26'4 7.0
2017-Nov-09 03:00N 47°37' W 003°24'4 7.4
2017-Nov-09 02:30N 47°40' W 003°23'3 6.8
2017-Nov-09 02:00N 47°44' W 003°22'0 0.0
2017-Nov-08 13:19N 47°44' W 003°22'0 0.1
2017-Nov-08 13:00N 47°44' W 003°22'4 7.2
2017-Nov-08 12:30N 47°40' W 003°22'  
Track history (hours):
 
Tides and Currents Weather Stations Pressure Air Temp Water Temp Dewpoint Dewpoint Depression Visibility Wind Speed Wind Dir Waves Ship Positions

F/V L'atout II

Last reported at 2017-Nov-18 12:07 UTC. Time now 2017-Nov-18 23:37 UTC.
Position N 47°44' W 003°22'.

Length 10 m.

Type: Fishing. MMSI: 227021840.

Date/timePositionNaut miles runAvg speedWind from/ knotsBaromVisibWave heightAir tempDewpointWater temp
2017-Nov-18 12:07N 47°44' W 003°22'0 0.3
2017-Nov-18 11:59N 47°44' W 003°22'3 5.5
2017-Nov-18 11:30N 47°41' W 003°22'4 8.2
2017-Nov-18 11:00N 47°37' W 003°23'4 8.1
2017-Nov-18 10:30N 47°33' W 003°22'2 3.8
2017-Nov-18 10:00N 47°31' W 003°22'0 0.6
2017-Nov-18 09:30N 47°31' W 003°22'1 1.1
2017-Nov-18 09:00N 47°30' W 003°22'0 0.8
2017-Nov-18 08:30N 47°31' W 003°22'4 6.9
2017-Nov-18 07:55N 47°34' W 003°26'0 1.0
2017-Nov-18 07:30N 47°34' W 003°26'1 1.1
2017-Nov-18 07:00N 47°34' W 003°26'1 1.4
2017-Nov-18 06:30N 47°34' W 003°25'1 2.1
2017-Nov-18 06:00N 47°33' W 003°25'2 3.0
2017-Nov-18 05:30N 47°32' W 003°23'2 3.2
2017-Nov-18 05:00N 47°32' W 003°20'1 2.4
2017-Nov-18 04:30N 47°32' W 003°22'1 1.1
2017-Nov-18 04:00N 47°31' W 003°22'2 3.1
2017-Nov-18 03:30N 47°33' W 003°23'4 7.8
2017-Nov-18 03:00N 47°37' W 003°23'4 7.8
2017-Nov-18 02:30N 47°41' W 003°22'3 6.1
2017-Nov-18 02:00N 47°44' W 003°22'0 0.0
2017-Nov-17 12:46N 47°44' W 003°22'0 0.2
2017-Nov-17 12:28N 47°44' W 003°22'3 7.2
2017-Nov-17 12:00N 47°40' W 003°22'4 8.1
2017-Nov-17 11:30N 47°36' W 003°22'4 8.1
2017-Nov-17 11:00N 47°32' W 003°21'1 1.1
2017-Nov-17 10:30N 47°32' W 003°21'1 2.0
2017-Nov-17 10:00N 47°31' W 003°22'0 0.3
2017-Nov-17 09:30N 47°31' W 003°22'1 1.2
2017-Nov-17 09:00N 47°31' W 003°23'1 1.6
2017-Nov-17 08:30N 47°32' W 003°24'2 3.6
2017-Nov-17 08:00N 47°34' W 003°24'1 1.4
2017-Nov-17 07:30N 47°34' W 003°25'1 2.6
2017-Nov-17 06:59N 47°35' W 003°26'1 1.3
2017-Nov-17 06:30N 47°34' W 003°26'1 1.1
2017-Nov-17 06:00N 47°34' W 003°25'0 0.8
2017-Nov-17 05:30N 47°34' W 003°25'1 1.7
2017-Nov-17 05:00N 47°33' W 003°25'0 0.4
2017-Nov-17 04:30N 47°33' W 003°25'1 1.9
2017-Nov-17 04:00N 47°32' W 003°24'2 3.7
2017-Nov-17 03:30N 47°32' W 003°21'4 7.7
2017-Nov-17 03:00N 47°36' W 003°22'4 7.7
2017-Nov-17 02:30N 47°40' W 003°22'3 6.9
2017-Nov-17 02:00N 47°44' W 003°22'0 0.0
2017-Nov-16 12:20N 47°44' W 003°22'0 0.6
2017-Nov-16 12:00N 47°44' W 003°22'4 8.3
2017-Nov-16 11:30N 47°39' W 003°22'4 8.2
2017-Nov-16 10:59N 47°35' W 003°24'2 4.8
2017-Nov-16 10:29N 47°33' W 003°25'0 0.3
2017-Nov-16 10:00N 47°33' W 003°25'1 2.4
2017-Nov-16 09:30N 47°33' W 003°27'1 1.4
2017-Nov-16 08:59N 47°33' W 003°26'1 3.0
2017-Nov-16 08:30N 47°32' W 003°24'2 4.8
2017-Nov-16 08:00N 47°34' W 003°26'1 1.3
2017-Nov-16 07:29N 47°34' W 003°26'1 2.4
2017-Nov-16 06:58N 47°35' W 003°26'0 0.2
2017-Nov-16 06:30N 47°35' W 003°26'0 0.8
2017-Nov-16 06:00N 47°35' W 003°26'1 1.0
2017-Nov-16 05:30N 47°34' W 003°25'0 0.9
2017-Nov-16 05:00N 47°34' W 003°25'0 0.6
2017-Nov-16 04:28N 47°34' W 003°25'1 1.1
2017-Nov-16 04:00N 47°33' W 003°25'1 1.0
2017-Nov-16 03:30N 47°33' W 003°26'3 6.8
2017-Nov-16 03:00N 47°36' W 003°23'4 7.6
2017-Nov-16 02:30N 47°40' W 003°23'3 6.9
2017-Nov-16 02:00N 47°43' W 003°22'0 0.0
2017-Nov-15 15:56N 47°44' W 003°22'0 0.0
2017-Nov-15 15:29N 47°44' W 003°22'0 0.0
2017-Nov-15 15:00N 47°44' W 003°22'0 0.0
2017-Nov-15 14:30N 47°44' W 003°22'0 0.0
2017-Nov-15 13:25N 47°44' W 003°22'0 0.1
2017-Nov-15 13:00N 47°44' W 003°22'4 8.1
2017-Nov-15 12:30N 47°40' W 003°22'4 8.1
2017-Nov-15 12:00N 47°36' W 003°23'2 4.2
2017-Nov-15 11:30N 47°34' W 003°25'0 0.2
2017-Nov-15 11:00N 47°34' W 003°25'0 0.4
2017-Nov-15 10:30N 47°34' W 003°25'0 0.6
2017-Nov-15 10:00N 47°34' W 003°25'1 2.7
2017-Nov-15 09:30N 47°35' W 003°23'1 1.4
2017-Nov-15 09:00N 47°35' W 003°24'1 2.1
2017-Nov-15 08:29N 47°34' W 003°26'0 0.9
2017-Nov-15 08:00N 47°34' W 003°26'1 1.4
2017-Nov-15 07:30N 47°34' W 003°27'1 1.0
2017-Nov-15 07:00N 47°34' W 003°27'0 0.9
2017-Nov-15 06:30N 47°34' W 003°27'1 1.5
2017-Nov-15 06:00N 47°35' W 003°26'0 0.4
2017-Nov-15 05:30N 47°35' W 003°26'0 0.8
2017-Nov-15 05:00N 47°35' W 003°26'1 1.5
2017-Nov-15 04:30N 47°34' W 003°25'1 2.0
2017-Nov-15 04:00N 47°34' W 003°24'1 1.1
2017-Nov-15 03:30N 47°34' W 003°25'2 4.8
2017-Nov-15 03:00N 47°36' W 003°23'4 7.7
2017-Nov-15 02:30N 47°40' W 003°23'4 7.1
2017-Nov-15 02:00N 47°44' W 003°22'0 0.0
2017-Nov-14 12:43N 47°44' W 003°22'0 0.2
2017-Nov-14 12:29N 47°44' W 003°22'1 1.1
2017-Nov-14 12:00N 47°43' W 003°22'4 8.1
2017-Nov-14 11:30N 47°39' W 003°23'4 7.9
2017-Nov-14 10:59N 47°35' W 003°24'1 2.6
2017-Nov-14 10:30N 47°34' W 003°25'1 1.0
2017-Nov-14 10:00N 47°34' W 003°24'0 0.8
2017-Nov-14 09:30N 47°34' W 003°24'1 2.7
2017-Nov-14 08:58N 47°35' W 003°25'1 1.8
2017-Nov-14 08:30N 47°34' W 003°26'1 1.3
2017-Nov-14 08:00N 47°34' W 003°26'1 1.5
2017-Nov-14 07:29N 47°34' W 003°25'0 0.4
2017-Nov-14 07:00N 47°34' W 003°25'1 1.3
2017-Nov-14 06:30N 47°33' W 003°26'0 0.7
2017-Nov-14 06:00N 47°33' W 003°26'1 0.8
2017-Nov-14 05:11N 47°34' W 003°27'0 1.3
2017-Nov-14 05:00N 47°34' W 003°27'1 2.8
2017-Nov-14 04:30N 47°35' W 003°26'1 1.1
2017-Nov-14 04:00N 47°35' W 003°26'1 1.6
2017-Nov-14 03:30N 47°34' W 003°25'2 3.8
2017-Nov-14 03:00N 47°36' W 003°23'4 8.2
2017-Nov-14 02:30N 47°40' W 003°23'4 7.6
2017-Nov-14 02:00N 47°43' W 003°22'0 0.0
2017-Nov-13 02:00N 47°44' W 003°22'  
2017-Nov-10 13:32N 47°44' W 003°22'0 0.0
2017-Nov-10 13:29N 47°44' W 003°22'0 0.0
2017-Nov-10 12:59N 47°44' W 003°22'0 0.0
2017-Nov-10 12:29N 47°44' W 003°22'1 1.8
2017-Nov-10 12:00N 47°43' W 003°22'3 6.8
2017-Nov-10 11:30N 47°40' W 003°23'3 6.8
2017-Nov-10 11:00N 47°36' W 003°25'3 5.3
2017-Nov-10 10:30N 47°34' W 003°24'1 1.4
2017-Nov-10 10:00N 47°33' W 003°25'0 0.6
2017-Nov-10 09:30N 47°33' W 003°25'1 2.7
2017-Nov-10 09:00N 47°34' W 003°27'0 0.9
2017-Nov-10 08:30N 47°34' W 003°27'1 1.2
2017-Nov-10 08:00N 47°33' W 003°26'1 1.2
2017-Nov-10 07:30N 47°33' W 003°25'0 0.9
2017-Nov-10 07:00N 47°33' W 003°25'1 2.8
2017-Nov-10 06:30N 47°34' W 003°26'0 0.7
2017-Nov-10 06:00N 47°34' W 003°25'1 1.4
2017-Nov-10 05:30N 47°35' W 003°26'0 0.7
2017-Nov-10 05:00N 47°35' W 003°26'0 0.8
2017-Nov-10 04:30N 47°35' W 003°25'2 3.4
2017-Nov-10 04:00N 47°33' W 003°26'1 2.1
2017-Nov-10 03:30N 47°34' W 003°26'3 6.3
2017-Nov-10 03:00N 47°37' W 003°23'4 7.2
2017-Nov-10 02:30N 47°40' W 003°22'3 6.7
2017-Nov-10 02:00N 47°44' W 003°22'0 0.0
2017-Nov-09 13:45N 47°44' W 003°22'0 0.2
2017-Nov-09 13:30N 47°44' W 003°22'2 4.6
2017-Nov-09 13:00N 47°42' W 003°22'4 7.5
2017-Nov-09 12:30N 47°38' W 003°23'4 7.3
2017-Nov-09 12:00N 47°34' W 003°24'3 5.2
2017-Nov-09 11:30N 47°35' W 003°28'0 1.0
2017-Nov-09 11:00N 47°35' W 003°27'0 0.9
2017-Nov-09 10:30N 47°34' W 003°27'1 1.3
2017-Nov-09 10:00N 47°34' W 003°26'2 3.1
2017-Nov-09 09:30N 47°34' W 003°24'1 1.2
2017-Nov-09 09:00N 47°34' W 003°25'2 3.1
2017-Nov-09 08:30N 47°33' W 003°27'1 1.0
2017-Nov-09 08:00N 47°33' W 003°26'1 1.2
2017-Nov-09 07:30N 47°33' W 003°26'2 4.1
2017-Nov-09 07:00N 47°35' W 003°26'1 1.9
2017-Nov-09 06:30N 47°34' W 003°26'0 0.9
2017-Nov-09 06:00N 47°34' W 003°25'1 3.0
2017-Nov-09 05:30N 47°35' W 003°26'0 0.9
2017-Nov-09 05:00N 47°35' W 003°26'1 2.2
2017-Nov-09 04:30N 47°35' W 003°27'2 4.1
2017-Nov-09 04:00N 47°34' W 003°25'1 1.9
2017-Nov-09 03:30N 47°33' W 003°26'4 7.0
2017-Nov-09 03:00N 47°37' W 003°24'4 7.4
2017-Nov-09 02:30N 47°40' W 003°23'3 6.8
2017-Nov-09 02:00N 47°44' W 003°22'0 0.0
2017-Nov-08 13:19N 47°44' W 003°22'0 0.1
2017-Nov-08 13:00N 47°44' W 003°22'4 7.2
2017-Nov-08 12:30N 47°40' W 003°22'  

Dump ship's entire track history